sensor_id;sensor_type;location;lat;lon;timestamp;pressure;altitude;pressure_sealevel;temperature;humidity
77192;BME280;66172;48.526;8.078;2022-12-20T00:00:48;100122.50;;;4.81;87.64
77192;BME280;66172;48.526;8.078;2022-12-20T00:03:13;100104.91;;;4.88;86.98
77192;BME280;66172;48.526;8.078;2022-12-20T00:05:40;100110.53;;;4.92;86.51
77192;BME280;66172;48.526;8.078;2022-12-20T00:08:08;100112.59;;;5.00;86.73
77192;BME280;66172;48.526;8.078;2022-12-20T00:10:38;100097.81;;;4.97;86.29
77192;BME280;66172;48.526;8.078;2022-12-20T00:13:05;100096.59;;;4.85;86.66
77192;BME280;66172;48.526;8.078;2022-12-20T00:15:31;100100.50;;;4.97;86.20
77192;BME280;66172;48.526;8.078;2022-12-20T00:17:58;100102.00;;;4.85;86.63
77192;BME280;66172;48.526;8.078;2022-12-20T00:20:25;100096.06;;;4.54;88.36
77192;BME280;66172;48.526;8.078;2022-12-20T00:22:51;100093.81;;;4.66;88.46
77192;BME280;66172;48.526;8.078;2022-12-20T00:25:17;100103.91;;;4.79;87.71
77192;BME280;66172;48.526;8.078;2022-12-20T00:27:45;100078.72;;;4.94;87.33
77192;BME280;66172;48.526;8.078;2022-12-20T00:30:11;100095.06;;;5.02;87.11
77192;BME280;66172;48.526;8.078;2022-12-20T00:32:37;100085.34;;;5.07;86.84
77192;BME280;66172;48.526;8.078;2022-12-20T00:35:03;100081.28;;;5.28;86.20
77192;BME280;66172;48.526;8.078;2022-12-20T00:37:29;100083.66;;;5.34;86.09
77192;BME280;66172;48.526;8.078;2022-12-20T00:39:55;100076.78;;;5.23;85.43
77192;BME280;66172;48.526;8.078;2022-12-20T00:42:21;100089.88;;;4.82;86.49
77192;BME280;66172;48.526;8.078;2022-12-20T00:44:47;100082.34;;;4.50;88.01
77192;BME280;66172;48.526;8.078;2022-12-20T00:47:13;100081.09;;;4.43;89.06
77192;BME280;66172;48.526;8.078;2022-12-20T00:49:39;100090.88;;;4.63;88.74
77192;BME280;66172;48.526;8.078;2022-12-20T00:52:06;100097.09;;;4.58;88.19
77192;BME280;66172;48.526;8.078;2022-12-20T00:54:32;100093.53;;;4.68;88.50
77192;BME280;66172;48.526;8.078;2022-12-20T00:56:58;100081.09;;;4.72;88.70
77192;BME280;66172;48.526;8.078;2022-12-20T00:59:24;100086.53;;;4.95;88.47
77192;BME280;66172;48.526;8.078;2022-12-20T01:01:50;100076.47;;;5.01;87.06
77192;BME280;66172;48.526;8.078;2022-12-20T01:04:16;100079.97;;;5.01;87.17
77192;BME280;66172;48.526;8.078;2022-12-20T01:06:42;100075.66;;;4.77;87.55
77192;BME280;66172;48.526;8.078;2022-12-20T01:09:10;100075.06;;;4.56;88.10
77192;BME280;66172;48.526;8.078;2022-12-20T01:11:37;100070.97;;;4.87;88.57
77192;BME280;66172;48.526;8.078;2022-12-20T01:14:09;100072.88;;;5.11;86.96
77192;BME280;66172;48.526;8.078;2022-12-20T01:16:41;100077.09;;;4.93;87.43
77192;BME280;66172;48.526;8.078;2022-12-20T01:19:09;100066.25;;;5.03;86.80
77192;BME280;66172;48.526;8.078;2022-12-20T01:21:35;100059.00;;;4.98;86.62
77192;BME280;66172;48.526;8.078;2022-12-20T01:24:01;100059.69;;;5.09;86.01
77192;BME280;66172;48.526;8.078;2022-12-20T01:26:28;100056.56;;;4.73;87.56
77192;BME280;66172;48.526;8.078;2022-12-20T01:28:57;100054.63;;;4.79;87.55
77192;BME280;66172;48.526;8.078;2022-12-20T01:31:23;100062.63;;;5.13;87.60
77192;BME280;66172;48.526;8.078;2022-12-20T01:33:50;100055.31;;;5.37;86.23
77192;BME280;66172;48.526;8.078;2022-12-20T01:36:20;100056.06;;;5.61;85.61
77192;BME280;66172;48.526;8.078;2022-12-20T01:38:47;100042.16;;;5.73;84.49
77192;BME280;66172;48.526;8.078;2022-12-20T01:41:17;100045.25;;;5.42;85.37
77192;BME280;66172;48.526;8.078;2022-12-20T01:46:11;100049.50;;;5.48;84.37
77192;BME280;66172;48.526;8.078;2022-12-20T01:48:38;100045.47;;;5.03;87.07
77192;BME280;66172;48.526;8.078;2022-12-20T01:51:05;100044.09;;;5.06;86.88
77192;BME280;66172;48.526;8.078;2022-12-20T01:53:31;100052.22;;;5.01;87.72
77192;BME280;66172;48.526;8.078;2022-12-20T01:56:01;100046.00;;;5.24;86.48
77192;BME280;66172;48.526;8.078;2022-12-20T01:58:29;100032.06;;;5.41;85.03
77192;BME280;66172;48.526;8.078;2022-12-20T02:00:55;100034.63;;;5.09;86.24
77192;BME280;66172;48.526;8.078;2022-12-20T02:03:21;100025.84;;;4.98;87.17
77192;BME280;66172;48.526;8.078;2022-12-20T02:05:47;100023.44;;;4.96;87.75
77192;BME280;66172;48.526;8.078;2022-12-20T02:08:16;100028.06;;;4.96;87.77
77192;BME280;66172;48.526;8.078;2022-12-20T02:13:50;100010.63;;;4.88;87.96
77192;BME280;66172;48.526;8.078;2022-12-20T02:16:25;100015.94;;;4.93;87.45
77192;BME280;66172;48.526;8.078;2022-12-20T02:19:05;100006.59;;;5.10;87.58
77192;BME280;66172;48.526;8.078;2022-12-20T02:21:47;99997.66;;;5.33;86.67
77192;BME280;66172;48.526;8.078;2022-12-20T02:30:31;99989.06;;;5.68;84.92
77192;BME280;66172;48.526;8.078;2022-12-20T02:33:02;99977.63;;;5.76;84.85
77192;BME280;66172;48.526;8.078;2022-12-20T02:35:32;99976.09;;;5.89;83.50
77192;BME280;66172;48.526;8.078;2022-12-20T02:38:01;99980.91;;;5.73;84.63
77192;BME280;66172;48.526;8.078;2022-12-20T02:40:33;99986.59;;;5.72;84.33
77192;BME280;66172;48.526;8.078;2022-12-20T02:43:04;99992.78;;;5.72;84.36
77192;BME280;66172;48.526;8.078;2022-12-20T02:45:51;99995.78;;;5.71;83.74
77192;BME280;66172;48.526;8.078;2022-12-20T02:48:19;99987.41;;;5.72;84.34
77192;BME280;66172;48.526;8.078;2022-12-20T02:50:49;99978.56;;;5.85;83.93
77192;BME280;66172;48.526;8.078;2022-12-20T02:53:16;99975.75;;;5.58;85.45
77192;BME280;66172;48.526;8.078;2022-12-20T02:55:58;99991.97;;;5.72;84.43
77192;BME280;66172;48.526;8.078;2022-12-20T02:58:33;99988.84;;;5.83;83.89
77192;BME280;66172;48.526;8.078;2022-12-20T03:01:05;99993.06;;;5.71;85.05
77192;BME280;66172;48.526;8.078;2022-12-20T03:03:34;99984.84;;;5.62;85.59
77192;BME280;66172;48.526;8.078;2022-12-20T03:06:01;99976.22;;;5.60;85.90
77192;BME280;66172;48.526;8.078;2022-12-20T03:08:27;99966.19;;;5.66;86.29
77192;BME280;66172;48.526;8.078;2022-12-20T03:10:54;99950.91;;;5.75;85.34
77192;BME280;66172;48.526;8.078;2022-12-20T03:13:21;99959.16;;;5.83;84.90
77192;BME280;66172;48.526;8.078;2022-12-20T03:15:47;99956.91;;;5.90;85.11
77192;BME280;66172;48.526;8.078;2022-12-20T03:18:13;99947.84;;;5.81;85.74
77192;BME280;66172;48.526;8.078;2022-12-20T03:20:39;99947.34;;;5.79;85.03
77192;BME280;66172;48.526;8.078;2022-12-20T03:23:05;99948.44;;;5.60;85.79
77192;BME280;66172;48.526;8.078;2022-12-20T03:25:31;99949.63;;;5.35;86.03
77192;BME280;66172;48.526;8.078;2022-12-20T03:27:57;99950.13;;;5.18;86.55
77192;BME280;66172;48.526;8.078;2022-12-20T03:30:23;99934.94;;;5.27;86.30
77192;BME280;66172;48.526;8.078;2022-12-20T03:32:49;99948.38;;;5.46;86.42
77192;BME280;66172;48.526;8.078;2022-12-20T03:35:16;99944.00;;;5.69;86.19
77192;BME280;66172;48.526;8.078;2022-12-20T03:37:41;99946.56;;;5.97;85.14
77192;BME280;66172;48.526;8.078;2022-12-20T03:40:08;99940.44;;;6.06;84.41
77192;BME280;66172;48.526;8.078;2022-12-20T03:42:35;99945.38;;;6.17;84.27
77192;BME280;66172;48.526;8.078;2022-12-20T03:45:02;99953.09;;;6.24;83.93
77192;BME280;66172;48.526;8.078;2022-12-20T03:47:28;99947.25;;;5.84;84.97
77192;BME280;66172;48.526;8.078;2022-12-20T03:49:54;99956.84;;;5.77;85.66
77192;BME280;66172;48.526;8.078;2022-12-20T03:52:20;99954.75;;;5.36;86.16
77192;BME280;66172;48.526;8.078;2022-12-20T03:54:46;99947.16;;;5.57;85.73
77192;BME280;66172;48.526;8.078;2022-12-20T03:57:12;99949.28;;;5.41;85.86
77192;BME280;66172;48.526;8.078;2022-12-20T03:59:38;99938.34;;;5.51;86.00
77192;BME280;66172;48.526;8.078;2022-12-20T04:02:04;99926.97;;;5.54;86.02
77192;BME280;66172;48.526;8.078;2022-12-20T04:04:30;99937.22;;;5.71;85.59
77192;BME280;66172;48.526;8.078;2022-12-20T04:06:56;99936.13;;;5.91;84.02
77192;BME280;66172;48.526;8.078;2022-12-20T04:09:22;99927.63;;;5.65;85.61
77192;BME280;66172;48.526;8.078;2022-12-20T04:11:48;99936.25;;;5.81;84.98
77192;BME280;66172;48.526;8.078;2022-12-20T04:14:14;99944.31;;;5.48;85.79
77192;BME280;66172;48.526;8.078;2022-12-20T04:16:39;99943.38;;;5.39;86.43
77192;BME280;66172;48.526;8.078;2022-12-20T04:19:05;99930.59;;;5.64;85.61
77192;BME280;66172;48.526;8.078;2022-12-20T04:21:32;99923.19;;;5.56;86.41
77192;BME280;66172;48.526;8.078;2022-12-20T04:24:00;99922.81;;;5.62;85.78
77192;BME280;66172;48.526;8.078;2022-12-20T04:26:26;99913.06;;;5.80;85.53
77192;BME280;66172;48.526;8.078;2022-12-20T04:28:52;99913.28;;;5.83;85.30
77192;BME280;66172;48.526;8.078;2022-12-20T04:31:18;99909.38;;;6.08;84.63
77192;BME280;66172;48.526;8.078;2022-12-20T04:33:45;99905.59;;;6.23;84.39
77192;BME280;66172;48.526;8.078;2022-12-20T04:36:11;99919.28;;;6.26;84.30
77192;BME280;66172;48.526;8.078;2022-12-20T04:38:37;99912.41;;;6.34;84.01
77192;BME280;66172;48.526;8.078;2022-12-20T04:41:03;99922.25;;;6.43;83.12
77192;BME280;66172;48.526;8.078;2022-12-20T04:43:29;99929.59;;;6.24;84.04
77192;BME280;66172;48.526;8.078;2022-12-20T04:45:55;99921.28;;;6.21;83.76
77192;BME280;66172;48.526;8.078;2022-12-20T04:48:24;99920.06;;;6.13;83.91
77192;BME280;66172;48.526;8.078;2022-12-20T04:50:55;99915.06;;;6.07;84.01
77192;BME280;66172;48.526;8.078;2022-12-20T04:53:21;99926.81;;;6.29;83.64
77192;BME280;66172;48.526;8.078;2022-12-20T04:56:06;99913.00;;;6.31;83.37
77192;BME280;66172;48.526;8.078;2022-12-20T04:58:32;99909.22;;;6.45;83.37
77192;BME280;66172;48.526;8.078;2022-12-20T05:00:58;99912.13;;;6.49;83.56
77192;BME280;66172;48.526;8.078;2022-12-20T05:03:25;99903.13;;;6.67;83.00
77192;BME280;66172;48.526;8.078;2022-12-20T05:05:52;99890.00;;;6.74;82.56
77192;BME280;66172;48.526;8.078;2022-12-20T05:08:18;99907.13;;;6.70;82.40
77192;BME280;66172;48.526;8.078;2022-12-20T05:10:44;99910.41;;;6.67;82.52
77192;BME280;66172;48.526;8.078;2022-12-20T05:13:10;99914.72;;;6.68;82.90
77192;BME280;66172;48.526;8.078;2022-12-20T05:15:36;99921.44;;;6.43;83.45
77192;BME280;66172;48.526;8.078;2022-12-20T05:18:02;99911.44;;;6.57;83.52
77192;BME280;66172;48.526;8.078;2022-12-20T05:20:29;99911.03;;;6.77;83.07
77192;BME280;66172;48.526;8.078;2022-12-20T05:22:55;99898.31;;;6.64;83.03
77192;BME280;66172;48.526;8.078;2022-12-20T05:25:45;99887.63;;;6.32;85.00
77192;BME280;66172;48.526;8.078;2022-12-20T05:28:34;99887.50;;;6.23;85.69
77192;BME280;66172;48.526;8.078;2022-12-20T05:31:01;99900.03;;;6.33;85.40
77192;BME280;66172;48.526;8.078;2022-12-20T05:33:27;99900.63;;;6.71;83.54
77192;BME280;66172;48.526;8.078;2022-12-20T05:35:54;99892.53;;;6.43;84.42
77192;BME280;66172;48.526;8.078;2022-12-20T05:38:20;99907.22;;;6.65;83.23
77192;BME280;66172;48.526;8.078;2022-12-20T05:40:47;99901.53;;;6.39;83.75
77192;BME280;66172;48.526;8.078;2022-12-20T05:43:14;99902.31;;;6.26;84.70
77192;BME280;66172;48.526;8.078;2022-12-20T05:45:48;99905.47;;;6.00;85.70
77192;BME280;66172;48.526;8.078;2022-12-20T05:48:15;99911.19;;;6.26;85.23
77192;BME280;66172;48.526;8.078;2022-12-20T05:50:42;99909.91;;;6.37;85.33
77192;BME280;66172;48.526;8.078;2022-12-20T05:53:11;99904.81;;;6.22;86.17
77192;BME280;66172;48.526;8.078;2022-12-20T05:55:37;99903.66;;;6.10;85.81
77192;BME280;66172;48.526;8.078;2022-12-20T05:58:05;99897.47;;;6.09;85.93
77192;BME280;66172;48.526;8.078;2022-12-20T06:00:32;99898.88;;;6.07;86.42
77192;BME280;66172;48.526;8.078;2022-12-20T06:02:58;99897.78;;;6.08;86.55
77192;BME280;66172;48.526;8.078;2022-12-20T06:05:24;99895.47;;;6.01;86.75
77192;BME280;66172;48.526;8.078;2022-12-20T06:07:50;99897.56;;;6.04;86.10
77192;BME280;66172;48.526;8.078;2022-12-20T06:10:16;99904.00;;;6.22;85.38
77192;BME280;66172;48.526;8.078;2022-12-20T06:12:42;99904.50;;;6.24;85.32
77192;BME280;66172;48.526;8.078;2022-12-20T06:15:08;99896.78;;;6.03;85.35
77192;BME280;66172;48.526;8.078;2022-12-20T06:17:35;99898.16;;;5.87;86.00
77192;BME280;66172;48.526;8.078;2022-12-20T06:20:01;99891.00;;;6.24;84.77
77192;BME280;66172;48.526;8.078;2022-12-20T06:22:27;99897.56;;;6.04;85.86
77192;BME280;66172;48.526;8.078;2022-12-20T06:24:53;99897.78;;;6.08;85.99
77192;BME280;66172;48.526;8.078;2022-12-20T06:27:19;99897.19;;;6.24;85.23
77192;BME280;66172;48.526;8.078;2022-12-20T06:29:46;99894.78;;;6.23;85.33
77192;BME280;66172;48.526;8.078;2022-12-20T06:32:16;99891.38;;;6.17;85.73
77192;BME280;66172;48.526;8.078;2022-12-20T06:34:42;99894.91;;;6.18;85.66
77192;BME280;66172;48.526;8.078;2022-12-20T06:37:08;99896.41;;;6.24;85.93
77192;BME280;66172;48.526;8.078;2022-12-20T06:39:34;99892.91;;;6.37;85.56
77192;BME280;66172;48.526;8.078;2022-12-20T06:42:00;99889.91;;;6.38;85.18
77192;BME280;66172;48.526;8.078;2022-12-20T06:44:26;99895.50;;;6.28;85.76
77192;BME280;66172;48.526;8.078;2022-12-20T06:46:52;99888.19;;;6.15;86.75
77192;BME280;66172;48.526;8.078;2022-12-20T06:49:18;99885.84;;;5.95;87.82
77192;BME280;66172;48.526;8.078;2022-12-20T06:51:44;99891.34;;;5.90;88.26
77192;BME280;66172;48.526;8.078;2022-12-20T06:54:10;99899.13;;;5.91;88.83
77192;BME280;66172;48.526;8.078;2022-12-20T06:56:35;99899.44;;;5.71;88.22
77192;BME280;66172;48.526;8.078;2022-12-20T06:59:01;99895.84;;;5.62;88.58
77192;BME280;66172;48.526;8.078;2022-12-20T07:01:27;99895.53;;;5.64;89.24
77192;BME280;66172;48.526;8.078;2022-12-20T07:03:53;99895.72;;;5.86;88.77
77192;BME280;66172;48.526;8.078;2022-12-20T07:06:19;99888.88;;;6.07;87.99
77192;BME280;66172;48.526;8.078;2022-12-20T07:08:45;99898.47;;;6.13;87.89
77192;BME280;66172;48.526;8.078;2022-12-20T07:11:11;99890.16;;;5.96;88.02
77192;BME280;66172;48.526;8.078;2022-12-20T07:13:37;99900.47;;;6.08;88.14
77192;BME280;66172;48.526;8.078;2022-12-20T07:16:03;99890.91;;;6.15;88.35
77192;BME280;66172;48.526;8.078;2022-12-20T07:18:29;99885.69;;;6.19;87.85
77192;BME280;66172;48.526;8.078;2022-12-20T07:21:02;99890.50;;;6.35;87.06
77192;BME280;66172;48.526;8.078;2022-12-20T07:23:28;99885.91;;;6.22;87.10
77192;BME280;66172;48.526;8.078;2022-12-20T07:25:55;99894.41;;;6.43;86.28
77192;BME280;66172;48.526;8.078;2022-12-20T07:28:22;99878.69;;;6.31;87.20
77192;BME280;66172;48.526;8.078;2022-12-20T07:30:48;99871.28;;;6.37;87.03
77192;BME280;66172;48.526;8.078;2022-12-20T07:33:14;99872.81;;;6.43;87.16
77192;BME280;66172;48.526;8.078;2022-12-20T07:35:40;99864.09;;;6.46;87.10
77192;BME280;66172;48.526;8.078;2022-12-20T07:38:06;99846.28;;;6.59;86.71
77192;BME280;66172;48.526;8.078;2022-12-20T07:40:32;99851.84;;;6.76;86.88
77192;BME280;66172;48.526;8.078;2022-12-20T07:42:58;99850.94;;;6.80;86.97
77192;BME280;66172;48.526;8.078;2022-12-20T07:45:23;99842.31;;;6.92;86.55
77192;BME280;66172;48.526;8.078;2022-12-20T07:47:49;99850.50;;;7.00;85.99
77192;BME280;66172;48.526;8.078;2022-12-20T07:50:15;99857.22;;;7.03;86.11
77192;BME280;66172;48.526;8.078;2022-12-20T07:52:42;99861.81;;;6.53;86.62
77192;BME280;66172;48.526;8.078;2022-12-20T07:55:10;99871.09;;;6.33;87.45
77192;BME280;66172;48.526;8.078;2022-12-20T07:57:51;99861.00;;;6.25;87.55
77192;BME280;66172;48.526;8.078;2022-12-20T08:00:19;99857.38;;;6.16;88.13
77192;BME280;66172;48.526;8.078;2022-12-20T08:02:59;99845.97;;;6.06;88.65
77192;BME280;66172;48.526;8.078;2022-12-20T08:05:27;99852.78;;;6.30;88.15
77192;BME280;66172;48.526;8.078;2022-12-20T08:07:55;99849.59;;;6.56;88.24
77192;BME280;66172;48.526;8.078;2022-12-20T08:10:22;99852.13;;;6.88;87.74
77192;BME280;66172;48.526;8.078;2022-12-20T08:12:49;99843.75;;;7.12;86.23
77192;BME280;66172;48.526;8.078;2022-12-20T08:15:15;99836.59;;;7.29;85.32
77192;BME280;66172;48.526;8.078;2022-12-20T08:17:41;99825.34;;;7.36;84.70
77192;BME280;66172;48.526;8.078;2022-12-20T08:20:07;99833.00;;;7.42;83.96
77192;BME280;66172;48.526;8.078;2022-12-20T08:22:34;99848.94;;;7.44;83.89
77192;BME280;66172;48.526;8.078;2022-12-20T08:25:00;99848.63;;;7.68;83.40
77192;BME280;66172;48.526;8.078;2022-12-20T08:27:26;99835.00;;;7.50;83.54
77192;BME280;66172;48.526;8.078;2022-12-20T08:29:51;99823.56;;;7.31;84.50
77192;BME280;66172;48.526;8.078;2022-12-20T08:32:17;99813.72;;;7.58;83.11
77192;BME280;66172;48.526;8.078;2022-12-20T08:34:43;99813.31;;;7.42;84.47
77192;BME280;66172;48.526;8.078;2022-12-20T08:37:10;99811.53;;;7.68;83.90
77192;BME280;66172;48.526;8.078;2022-12-20T08:39:36;99822.97;;;7.65;83.84
77192;BME280;66172;48.526;8.078;2022-12-20T08:42:03;99821.25;;;7.69;83.82
77192;BME280;66172;48.526;8.078;2022-12-20T08:44:29;99816.41;;;7.88;82.79
77192;BME280;66172;48.526;8.078;2022-12-20T08:46:55;99818.38;;;7.96;82.66
77192;BME280;66172;48.526;8.078;2022-12-20T08:49:21;99831.09;;;7.87;83.20
77192;BME280;66172;48.526;8.078;2022-12-20T08:51:47;99828.41;;;7.65;84.31
77192;BME280;66172;48.526;8.078;2022-12-20T08:54:13;99824.34;;;7.54;84.86
77192;BME280;66172;48.526;8.078;2022-12-20T08:56:38;99802.31;;;7.38;84.52
77192;BME280;66172;48.526;8.078;2022-12-20T08:59:04;99806.09;;;7.60;83.74
77192;BME280;66172;48.526;8.078;2022-12-20T09:01:30;99800.88;;;8.02;82.11
77192;BME280;66172;48.526;8.078;2022-12-20T09:03:58;99803.00;;;8.14;81.51
77192;BME280;66172;48.526;8.078;2022-12-20T09:06:24;99796.78;;;8.14;81.49
77192;BME280;66172;48.526;8.078;2022-12-20T09:08:50;99799.44;;;8.44;80.80
77192;BME280;66172;48.526;8.078;2022-12-20T09:11:18;99795.66;;;8.63;80.41
77192;BME280;66172;48.526;8.078;2022-12-20T09:13:46;99800.72;;;8.38;80.57
77192;BME280;66172;48.526;8.078;2022-12-20T09:16:14;99802.03;;;8.58;80.45
77192;BME280;66172;48.526;8.078;2022-12-20T09:18:40;99817.88;;;8.82;79.59
77192;BME280;66172;48.526;8.078;2022-12-20T09:21:07;99808.88;;;8.56;79.44
77192;BME280;66172;48.526;8.078;2022-12-20T09:23:34;99819.78;;;8.90;79.45
77192;BME280;66172;48.526;8.078;2022-12-20T09:26:05;99815.81;;;9.13;78.54
77192;BME280;66172;48.526;8.078;2022-12-20T09:28:32;99814.03;;;9.09;77.86
77192;BME280;66172;48.526;8.078;2022-12-20T09:31:01;99822.66;;;9.02;78.43
77192;BME280;66172;48.526;8.078;2022-12-20T09:33:28;99817.06;;;8.81;79.27
77192;BME280;66172;48.526;8.078;2022-12-20T09:35:55;99818.19;;;8.97;78.71
77192;BME280;66172;48.526;8.078;2022-12-20T09:38:21;99819.63;;;9.21;78.06
77192;BME280;66172;48.526;8.078;2022-12-20T09:40:50;99813.50;;;9.58;76.69
77192;BME280;66172;48.526;8.078;2022-12-20T09:43:18;99810.66;;;9.54;76.35
77192;BME280;66172;48.526;8.078;2022-12-20T09:45:46;99805.91;;;9.34;76.92
77192;BME280;66172;48.526;8.078;2022-12-20T09:48:18;99801.41;;;9.30;77.03
77192;BME280;66172;48.526;8.078;2022-12-20T09:56:42;99813.09;;;9.13;78.18
77192;BME280;66172;48.526;8.078;2022-12-20T09:59:13;99825.19;;;8.81;79.84
77192;BME280;66172;48.526;8.078;2022-12-20T10:01:44;99824.38;;;8.81;79.93
77192;BME280;66172;48.526;8.078;2022-12-20T10:04:22;99811.78;;;8.85;79.81
77192;BME280;66172;48.526;8.078;2022-12-20T10:06:54;99826.94;;;8.94;79.60
77192;BME280;66172;48.526;8.078;2022-12-20T10:15:02;99792.53;;;10.31;74.89
77192;BME280;66172;48.526;8.078;2022-12-20T10:23:16;99780.72;;;11.18;71.07
77192;BME280;66172;48.526;8.078;2022-12-20T10:25:39;99786.16;;;10.27;74.68
77192;BME280;66172;48.526;8.078;2022-12-20T10:28:11;99785.13;;;10.02;76.57
77192;BME280;66172;48.526;8.078;2022-12-20T10:30:38;99776.38;;;9.88;76.96
77192;BME280;66172;48.526;8.078;2022-12-20T10:33:04;99766.63;;;9.95;76.80
77192;BME280;66172;48.526;8.078;2022-12-20T10:35:35;99758.22;;;10.09;76.35
77192;BME280;66172;48.526;8.078;2022-12-20T10:38:07;99757.34;;;10.34;75.41
77192;BME280;66172;48.526;8.078;2022-12-20T10:40:40;99767.41;;;10.34;74.69
77192;BME280;66172;48.526;8.078;2022-12-20T10:43:14;99753.72;;;10.22;75.51
77192;BME280;66172;48.526;8.078;2022-12-20T10:45:41;99762.22;;;10.20;75.60
77192;BME280;66172;48.526;8.078;2022-12-20T10:48:29;99761.88;;;10.22;74.95
77192;BME280;66172;48.526;8.078;2022-12-20T10:51:12;99743.50;;;10.19;75.38
77192;BME280;66172;48.526;8.078;2022-12-20T10:56:21;99733.00;;;10.00;76.21
77192;BME280;66172;48.526;8.078;2022-12-20T10:58:52;99724.63;;;10.22;75.07
77192;BME280;66172;48.526;8.078;2022-12-20T11:01:20;99725.28;;;10.19;74.64
77192;BME280;66172;48.526;8.078;2022-12-20T11:04:46;99732.84;;;10.05;75.44
77192;BME280;66172;48.526;8.078;2022-12-20T11:06:46;99737.63;;;10.08;75.13
77192;BME280;66172;48.526;8.078;2022-12-20T11:14:22;99708.09;;;9.98;76.43
77192;BME280;66172;48.526;8.078;2022-12-20T11:16:50;99707.56;;;10.13;76.66
77192;BME280;66172;48.526;8.078;2022-12-20T11:19:44;99706.56;;;10.47;74.89
77192;BME280;66172;48.526;8.078;2022-12-20T11:25:30;99695.13;;;10.03;77.21
77192;BME280;66172;48.526;8.078;2022-12-20T11:28:13;99689.97;;;10.11;76.24
77192;BME280;66172;48.526;8.078;2022-12-20T11:31:06;99680.88;;;10.15;75.97
77192;BME280;66172;48.526;8.078;2022-12-20T11:33:45;99669.47;;;10.42;74.83
77192;BME280;66172;48.526;8.078;2022-12-20T11:39:59;99675.38;;;10.65;73.28
77192;BME280;66172;48.526;8.078;2022-12-20T11:42:18;99668.41;;;10.76;72.80
77192;BME280;66172;48.526;8.078;2022-12-20T11:45:34;99677.03;;;10.78;72.60
77192;BME280;66172;48.526;8.078;2022-12-20T11:48:17;99677.63;;;10.63;73.16
77192;BME280;66172;48.526;8.078;2022-12-20T11:51:21;99677.16;;;10.82;73.00
77192;BME280;66172;48.526;8.078;2022-12-20T11:54:08;99680.94;;;11.01;72.52
77192;BME280;66172;48.526;8.078;2022-12-20T11:56:36;99683.16;;;11.08;71.77
77192;BME280;66172;48.526;8.078;2022-12-20T11:59:10;99666.78;;;10.96;72.52
77192;BME280;66172;48.526;8.078;2022-12-20T12:01:42;99664.31;;;11.03;73.24
77192;BME280;66172;48.526;8.078;2022-12-20T12:04:29;99652.44;;;11.20;72.79
77192;BME280;66172;48.526;8.078;2022-12-20T12:07:02;99646.09;;;11.28;72.66
77192;BME280;66172;48.526;8.078;2022-12-20T12:09:53;99622.34;;;11.04;73.14
77192;BME280;66172;48.526;8.078;2022-12-20T12:12:26;99600.97;;;10.82;74.29
77192;BME280;66172;48.526;8.078;2022-12-20T12:15:33;99621.69;;;11.07;72.58
77192;BME280;66172;48.526;8.078;2022-12-20T12:18:19;99615.81;;;11.17;72.31
77192;BME280;66172;48.526;8.078;2022-12-20T12:24:01;99596.19;;;11.12;71.85
77192;BME280;66172;48.526;8.078;2022-12-20T12:26:35;99606.28;;;11.11;72.85
77192;BME280;66172;48.526;8.078;2022-12-20T12:31:44;99602.16;;;11.05;72.95
77192;BME280;66172;48.526;8.078;2022-12-20T12:48:04;99597.53;;;11.54;70.21
77192;BME280;66172;48.526;8.078;2022-12-20T12:50:40;99603.00;;;11.42;71.47
77192;BME280;66172;48.526;8.078;2022-12-20T12:53:23;99595.63;;;11.42;71.56
77192;BME280;66172;48.526;8.078;2022-12-20T12:55:53;99588.28;;;11.43;71.24
77192;BME280;66172;48.526;8.078;2022-12-20T13:01:08;99568.41;;;11.42;71.41
77192;BME280;66172;48.526;8.078;2022-12-20T13:03:45;99581.78;;;11.47;70.65
77192;BME280;66172;48.526;8.078;2022-12-20T13:16:46;99555.69;;;11.59;69.25
77192;BME280;66172;48.526;8.078;2022-12-20T13:19:13;99540.03;;;11.56;69.83
77192;BME280;66172;48.526;8.078;2022-12-20T13:21:41;99542.88;;;11.71;68.83
77192;BME280;66172;48.526;8.078;2022-12-20T13:27:23;99525.50;;;11.76;67.89
77192;BME280;66172;48.526;8.078;2022-12-20T13:38:04;99511.44;;;11.74;69.87
77192;BME280;66172;48.526;8.078;2022-12-20T13:40:51;99507.91;;;11.73;69.07
77192;BME280;66172;48.526;8.078;2022-12-20T13:48:58;99489.97;;;11.72;69.00
77192;BME280;66172;48.526;8.078;2022-12-20T13:51:30;99491.69;;;11.52;70.31
77192;BME280;66172;48.526;8.078;2022-12-20T13:53:59;99501.34;;;11.50;70.14
77192;BME280;66172;48.526;8.078;2022-12-20T13:58:53;99513.69;;;11.60;70.07
77192;BME280;66172;48.526;8.078;2022-12-20T14:01:22;99511.66;;;11.44;70.56
77192;BME280;66172;48.526;8.078;2022-12-20T14:03:48;99522.22;;;11.46;70.96
77192;BME280;66172;48.526;8.078;2022-12-20T14:06:18;99526.56;;;11.35;70.87
77192;BME280;66172;48.526;8.078;2022-12-20T14:08:49;99529.13;;;11.43;70.03
77192;BME280;66172;48.526;8.078;2022-12-20T14:11:21;99514.97;;;11.50;70.18
77192;BME280;66172;48.526;8.078;2022-12-20T14:13:56;99515.78;;;11.38;70.66
77192;BME280;66172;48.526;8.078;2022-12-20T14:16:23;99515.31;;;11.48;67.40
77192;BME280;66172;48.526;8.078;2022-12-20T14:19:00;99507.13;;;11.61;67.58
77192;BME280;66172;48.526;8.078;2022-12-20T14:21:28;99519.16;;;11.60;68.90
77192;BME280;66172;48.526;8.078;2022-12-20T14:23:57;99497.72;;;11.34;70.46
77192;BME280;66172;48.526;8.078;2022-12-20T14:26:36;99500.44;;;11.34;70.44
77192;BME280;66172;48.526;8.078;2022-12-20T14:29:09;99499.22;;;11.19;70.75
77192;BME280;66172;48.526;8.078;2022-12-20T14:31:39;99491.03;;;11.19;70.72
77192;BME280;66172;48.526;8.078;2022-12-20T14:36:38;99503.75;;;11.03;71.22
77192;BME280;66172;48.526;8.078;2022-12-20T14:39:27;99504.09;;;11.01;71.17
77192;BME280;66172;48.526;8.078;2022-12-20T14:42:01;99506.16;;;11.05;70.98
77192;BME280;66172;48.526;8.078;2022-12-20T14:44:37;99504.31;;;11.09;70.70
77192;BME280;66172;48.526;8.078;2022-12-20T14:47:13;99502.38;;;11.09;70.45
77192;BME280;66172;48.526;8.078;2022-12-20T14:49:47;99511.94;;;11.15;69.99
77192;BME280;66172;48.526;8.078;2022-12-20T14:52:15;99498.97;;;11.12;70.28
77192;BME280;66172;48.526;8.078;2022-12-20T14:57:26;99505.00;;;11.06;70.15
77192;BME280;66172;48.526;8.078;2022-12-20T15:02:50;99506.38;;;11.12;70.32